Flight Track Log - Related Links

Times and Time Zones

All times are in EDT time to prevent confusion due to time zone crossing. See the JZA8557 flight status page for this flight to view local times or setup timezone preferences in your user account.

Time Position Orientation Groundspeed Altitude Reporting Facility
EDT Latitude Longitude Course Direction KTS MPH feet Rate Location/Type
Thu 09:19:14 PM 51.0333 -114.0500 251° West 170 196 5,500  Level Edmonton Center
Thu 09:20:14 PM 50.9833 -114.0333 168° South 200 230 7,200 1,550 Climbing Edmonton Center
Thu 09:21:14 PM 50.9333 -114.0833 212° Southwest 240 276 8,600 1,500 Climbing Edmonton Center
Thu 09:22:14 PM 50.8667 -114.1500 212° Southwest 260 299 10,200 1,550 Climbing Edmonton Center
Thu 09:23:00 PM 50.9803 -114.6464 251° West  Level Estimated
Thu 09:23:14 PM 50.8167 -114.2500 232° Southwest 270 311 11,700  Level Edmonton Center
Thu 09:24:00 PM 50.9532 -114.7711 251° West  Level Estimated
Thu 09:24:14 PM 50.8000 -114.3500 255° West 260 299 13,500  Level Edmonton Center
Thu 09:25:14 PM 50.8500 -114.4333 314° West 260 299 14,900 1,500 Climbing Edmonton Center
Thu 09:26:14 PM 50.8667 -114.5500 283° West 260 299 16,500 1,350 Climbing Edmonton Center
Thu 09:27:14 PM 50.9000 -114.6667 294° West 260 299 17,600 1,150 Climbing Edmonton Center
Thu 09:28:14 PM 50.9167 -114.7833 283° West 260 299 18,800 1,140 Climbing Edmonton Center
Thu 09:29:15 PM 50.9000 -114.8833 255° West 260 299 19,900 992 Climbing Edmonton Center
Thu 09:30:15 PM 50.8833 -114.9833 255° West 260 299 20,800 807 Climbing Edmonton Center
Thu 09:31:14 PM 50.8500 -115.1167 248° West 260 299 21,500 750 Climbing Edmonton Center
Thu 09:32:15 PM 50.8500 -115.2167 270° West 270 311 22,300 744 Climbing Edmonton Center
Thu 09:33:15 PM 50.8167 -115.3500 248° West 270 311 23,000 756 Climbing Edmonton Center
Thu 09:34:14 PM 50.8000 -115.4500 255° West 280 322 23,800 504 Climbing Edmonton Center
Thu 09:35:14 PM 50.7833 -115.5833 259° West 280 322 24,000 100 Climbing Edmonton Center
Thu 09:36:14 PM 50.7667 -115.7167 259° West 300 345 24,000  Level Edmonton Center
Thu 09:37:14 PM 50.7333 -115.8333 246° West 310 357 24,000  Level Edmonton Center
Thu 09:38:14 PM 50.7167 -116.0000 261° West 320 368 24,000  Level Edmonton Center
Thu 09:39:14 PM 50.6833 -116.1167 246° West 320 368 24,000  Level Edmonton Center
Thu 09:39:50 PM 50.6833 -116.1500 270° West 320 368 24,000  Level Vancouver Center
Thu 09:40:50 PM 50.6667 -116.2833 259° West 330 380 24,000  Level Vancouver Center
Thu 09:41:50 PM 50.6333 -116.4167 249° West 330 380 24,000  Level Vancouver Center
Thu 09:42:50 PM 50.6167 -116.5500 259° West 330 380 24,000  Level Vancouver Center
Thu 09:43:50 PM 50.5833 -116.7167 253° West 330 380 24,000  Level Vancouver Center
Thu 09:44:50 PM 50.5833 -116.8500 270° West 330 380 24,000  Level Vancouver Center
Thu 09:45:50 PM 50.5333 -116.9833 239° Southwest 330 380 24,000  Level Vancouver Center
Thu 09:46:50 PM 50.5333 -117.1167 270° West 330 380 24,000  Level Vancouver Center
Thu 09:47:50 PM 50.5000 -117.2500 249° West 330 380 24,000  Level Vancouver Center
Thu 09:48:50 PM 50.4833 -117.3833 259° West 330 380 24,000  Level Vancouver Center
Thu 09:49:50 PM 50.4500 -117.5333 251° West 330 380 24,000  Level Vancouver Center
Thu 09:50:50 PM 50.4333 -117.6667 259° West 330 380 24,000  Level Vancouver Center
Thu 09:51:50 PM 50.4000 -117.8000 249° West 330 380 24,000  Level Vancouver Center
Thu 09:52:50 PM 50.3833 -117.9500 260° West 330 380 24,000  Level Vancouver Center
Thu 09:53:50 PM 50.3500 -118.0833 249° West 330 380 24,000  Level Vancouver Center
Thu 09:54:50 PM 50.3167 -118.2333 251° West 330 380 24,000  Level Vancouver Center
Thu 09:55:50 PM 50.3000 -118.3667 259° West 330 380 24,000  Level Vancouver Center
Thu 09:56:50 PM 50.2667 -118.5000 249° West 330 380 24,000  Level Vancouver Center
Thu 09:57:50 PM 50.2333 -118.6333 249° West 330 380 24,000  Level Vancouver Center
Thu 09:58:50 PM 50.2167 -118.7667 259° West 320 368 24,000  Level Vancouver Center
Thu 09:59:50 PM 50.1833 -118.9000 249° West 320 368 24,000  Level Vancouver Center
Thu 10:00:50 PM 50.1500 -119.0333 249° West 330 380 24,000  Level Vancouver Center
Thu 10:01:50 PM 50.1333 -119.1667 259° West 330 380 24,000  Level Vancouver Center
Thu 10:02:50 PM 50.1000 -119.3167 251° West 330 380 24,000  Level Vancouver Center
Thu 10:03:50 PM 50.0667 -119.4333 246° West 330 380 24,000  Level Vancouver Center
Thu 10:04:50 PM 50.0500 -119.5833 260° West 330 380 24,000  Level Vancouver Center
Thu 10:05:51 PM 50.0167 -119.7167 249° West 320 368 24,000  Level Vancouver Center
Thu 10:06:51 PM 49.9833 -119.8500 249° West 320 368 24,000  Level Vancouver Center
Thu 10:07:51 PM 49.9667 -119.9833 259° West 330 380 24,000  Level Vancouver Center
Thu 10:08:51 PM 49.9333 -120.1167 249° West 330 380 24,000  Level Vancouver Center
Thu 10:09:51 PM 49.9000 -120.2500 249° West 330 380 24,000  Level Vancouver Center
Thu 10:10:51 PM 49.8667 -120.3833 249° West 330 380 24,000  Level Vancouver Center
Thu 10:11:51 PM 49.8500 -120.5167 259° West 330 380 24,000  Level Vancouver Center
Thu 10:12:51 PM 49.8167 -120.6500 249° West 320 368 24,000  Level Vancouver Center
Thu 10:13:51 PM 49.7833 -120.7667 246° West 330 380 24,000  Level Vancouver Center
Thu 10:14:51 PM 49.7500 -120.9000 249° West 330 380 24,000  Level Vancouver Center
Thu 10:15:51 PM 49.7167 -121.0333 249° West 330 380 24,000  Level Vancouver Center
Thu 10:16:51 PM 49.7000 -121.2000 261° West 330 380 24,000  Level Vancouver Center
Thu 10:17:51 PM 49.6833 -121.3167 258° West 330 380 24,000  Level Vancouver Center
Thu 10:18:51 PM 49.6500 -121.4500 249° West 330 380 24,000  Level Vancouver Center
Thu 10:19:51 PM 49.6167 -121.5833 249° West 330 380 24,000  Level Vancouver Center
Thu 10:20:51 PM 49.5833 -121.7167 249° West 330 380 24,000  Level Vancouver Center
Thu 10:21:51 PM 49.5500 -121.8500 249° West 320 368 24,000  Level Vancouver Center
Thu 10:22:51 PM 49.5167 -121.9667 246° West 320 368 24,000  Level Vancouver Center
Thu 10:23:51 PM 49.4833 -122.1000 249° West 320 368 24,000  Level Vancouver Center
Thu 10:24:51 PM 49.4500 -122.2000 243° Southwest 320 368 24,000  Level Vancouver Center
Thu 10:25:51 PM 49.4000 -122.3333 240° Southwest 320 368 24,000 -750 Level Vancouver Center
Thu 10:26:51 PM 49.3500 -122.4333 233° Southwest 330 380 22,500 -1,400 Descending Vancouver Center
Thu 10:27:51 PM 49.3000 -122.5500 237° Southwest 310 357 21,200 -1,350 Descending Vancouver Center
Thu 10:28:51 PM 49.2500 -122.6667 237° Southwest 300 345 19,800 -1,450 Descending Vancouver Center
Thu 10:29:51 PM 49.2167 -122.7833 246° West 310 357 18,300 -1,350 Descending Vancouver Center
Thu 10:30:51 PM 49.1667 -122.9000 237° Southwest 310 357 17,100 -650 Descending Vancouver Center
Thu 10:31:51 PM 49.1167 -123.0167 237° Southwest 300 345 17,000 -500 Descending Vancouver Center
Thu 10:32:51 PM 49.0833 -123.0833 233° Southwest 280 322 16,100 -1,350 Descending Vancouver Center
Thu 10:33:51 PM 49.0167 -123.1667 219° Southwest 270 311 14,300 -1,600 Descending Vancouver Center
Thu 10:34:51 PM 48.9667 -123.2167 213° Southwest 250 288 12,900 -1,500 Descending Vancouver Center
Thu 10:35:51 PM 48.9000 -123.2667 206° Southwest 250 288 11,300 -1,450 Descending Vancouver Center
Thu 10:36:51 PM 48.8333 -123.3000 198° South 240 276 10,000 -1,350 Descending Vancouver Center
Thu 10:37:51 PM 48.7667 -123.3167 189° South 240 276 8,600 -1,500 Descending Vancouver Center
Thu 10:38:51 PM 48.7167 -123.3500 204° Southwest 230 265 7,000 -1,650 Descending Vancouver Center
Thu 10:39:51 PM 48.6667 -123.3000 147° Southeast 210 242 5,300 -1,650 Descending Vancouver Center
Thu 10:40:51 PM 48.6667 -123.2167 90° East 210 242 3,700 -1,200 Descending Vancouver Center
Thu 10:41:51 PM 48.6167 -123.2167 180° South 180 207 2,900 -950 Descending Vancouver Center
Thu 10:42:51 PM 48.6000 -123.3000 253° West 170 196 1,800 -1,050 Descending Vancouver Center
Thu 10:43:51 PM 48.6167 -123.3500 297° West 170 196 800 -800 Descending Vancouver Center
Thu 10:44:51 PM 48.6167 -123.4000 270° West 120 138 200 -600 Descending Vancouver Center

Login

Don't have an account? Register now (free) for customized features, flight alerts, and more!